sensor_id;sensor_type;location;lat;lon;timestamp;pressure;altitude;pressure_sealevel;temperature;humidity
59829;BME280;45708;51.848;107.620;2023-04-02T00:10:35;96159.22;;;-6.93;40.60
59829;BME280;45708;51.848;107.620;2023-04-02T00:15:39;96152.31;;;-6.77;39.90
59829;BME280;45708;51.848;107.620;2023-04-02T00:20:43;96149.16;;;-6.52;39.91
59829;BME280;45708;51.848;107.620;2023-04-02T00:25:45;96152.22;;;-6.17;39.83
59829;BME280;45708;51.848;107.620;2023-04-02T00:30:54;96140.94;;;-6.00;39.63
59829;BME280;45708;51.848;107.620;2023-04-02T00:35:55;96148.28;;;-5.94;39.35
59829;BME280;45708;51.848;107.620;2023-04-02T00:41:01;96159.09;;;-5.74;39.00
59829;BME280;45708;51.848;107.620;2023-04-02T00:46:09;96164.88;;;-5.71;38.04
59829;BME280;45708;51.848;107.620;2023-04-02T00:51:19;96162.59;;;-5.34;37.31
59829;BME280;45708;51.848;107.620;2023-04-02T01:01:32;96159.81;;;-5.04;37.29
59829;BME280;45708;51.848;107.620;2023-04-02T01:06:37;96159.22;;;-4.68;36.54
59829;BME280;45708;51.848;107.620;2023-04-02T01:31:56;96168.06;;;-4.07;33.59
59829;BME280;45708;51.848;107.620;2023-04-02T01:47:20;96175.59;;;-4.30;32.45
59829;BME280;45708;51.848;107.620;2023-04-02T01:52:34;96155.75;;;-4.42;32.80
59829;BME280;45708;51.848;107.620;2023-04-02T01:57:36;96165.59;;;-5.01;31.75
59829;BME280;45708;51.848;107.620;2023-04-02T02:02:37;96165.31;;;-4.69;31.55
59829;BME280;45708;51.848;107.620;2023-04-02T02:07:38;96172.25;;;-4.57;32.11
59829;BME280;45708;51.848;107.620;2023-04-02T02:12:40;96166.22;;;-3.80;31.47
59829;BME280;45708;51.848;107.620;2023-04-02T02:17:42;96170.56;;;-3.44;29.96
59829;BME280;45708;51.848;107.620;2023-04-02T02:22:46;96153.53;;;-3.46;30.20
59829;BME280;45708;51.848;107.620;2023-04-02T02:27:50;96156.28;;;-3.86;31.23
59829;BME280;45708;51.848;107.620;2023-04-02T02:33:00;96155.38;;;-4.10;31.10
59829;BME280;45708;51.848;107.620;2023-04-02T02:38:27;96138.91;;;-3.58;30.86
59829;BME280;45708;51.848;107.620;2023-04-02T02:43:43;96149.19;;;-3.46;29.53
59829;BME280;45708;51.848;107.620;2023-04-02T02:48:49;96135.19;;;-3.67;29.88
59829;BME280;45708;51.848;107.620;2023-04-02T02:53:53;96142.41;;;-3.59;30.47
59829;BME280;45708;51.848;107.620;2023-04-02T02:58:57;96144.28;;;-2.77;29.21
59829;BME280;45708;51.848;107.620;2023-04-02T03:03:58;96138.22;;;-2.89;29.45
59829;BME280;45708;51.848;107.620;2023-04-02T03:09:09;96136.44;;;-2.99;29.86
59829;BME280;45708;51.848;107.620;2023-04-02T03:14:22;96127.75;;;-2.98;29.92
59829;BME280;45708;51.848;107.620;2023-04-02T03:19:37;96128.50;;;-2.85;29.68
59829;BME280;45708;51.848;107.620;2023-04-02T03:40:27;96132.09;;;-3.72;29.58
59829;BME280;45708;51.848;107.620;2023-04-02T03:45:36;96126.94;;;-3.59;28.95
59829;BME280;45708;51.848;107.620;2023-04-02T03:55:40;96131.81;;;-3.44;28.14
59829;BME280;45708;51.848;107.620;2023-04-02T04:00:56;96122.34;;;-3.19;28.56
59829;BME280;45708;51.848;107.620;2023-04-02T04:06:05;96113.03;;;-3.22;27.42
59829;BME280;45708;51.848;107.620;2023-04-02T04:11:13;96112.66;;;-3.04;28.42
59829;BME280;45708;51.848;107.620;2023-04-02T04:16:27;96113.38;;;-2.79;27.94
59829;BME280;45708;51.848;107.620;2023-04-02T04:21:30;96094.97;;;-2.98;28.51
59829;BME280;45708;51.848;107.620;2023-04-02T04:26:35;96097.63;;;-2.76;28.26
59829;BME280;45708;51.848;107.620;2023-04-02T04:31:46;96091.97;;;-2.34;28.56
59829;BME280;45708;51.848;107.620;2023-04-02T04:36:54;96084.91;;;-2.32;28.54
59829;BME280;45708;51.848;107.620;2023-04-02T04:41:59;96077.06;;;-2.66;29.24
59829;BME280;45708;51.848;107.620;2023-04-02T04:47:09;96088.06;;;-2.86;29.40
59829;BME280;45708;51.848;107.620;2023-04-02T04:57:30;96085.19;;;-2.70;29.35
59829;BME280;45708;51.848;107.620;2023-04-02T05:02:40;96093.19;;;-2.97;29.34
59829;BME280;45708;51.848;107.620;2023-04-02T05:07:51;96091.88;;;-2.79;29.15
59829;BME280;45708;51.848;107.620;2023-04-02T05:13:00;96074.91;;;-2.83;28.87
59829;BME280;45708;51.848;107.620;2023-04-02T05:18:25;96080.25;;;-2.73;28.81
59829;BME280;45708;51.848;107.620;2023-04-02T05:29:25;96068.38;;;-2.65;28.48
59829;BME280;45708;51.848;107.620;2023-04-02T05:34:31;96063.66;;;-2.71;28.97
59829;BME280;45708;51.848;107.620;2023-04-02T05:39:34;96058.97;;;-2.66;28.08
59829;BME280;45708;51.848;107.620;2023-04-02T05:44:37;96053.81;;;-2.55;28.41
59829;BME280;45708;51.848;107.620;2023-04-02T06:00:14;96048.84;;;-3.15;28.12
59829;BME280;45708;51.848;107.620;2023-04-02T06:05:18;96061.94;;;-2.48;27.60
59829;BME280;45708;51.848;107.620;2023-04-02T06:15:23;96045.59;;;-2.60;27.82
59829;BME280;45708;51.848;107.620;2023-04-02T06:20:24;96042.53;;;-2.42;27.23
59829;BME280;45708;51.848;107.620;2023-04-02T06:25:54;96037.47;;;-2.55;27.55
59829;BME280;45708;51.848;107.620;2023-04-02T06:31:00;96032.63;;;-2.71;27.21
59829;BME280;45708;51.848;107.620;2023-04-02T06:36:03;96034.50;;;-2.73;26.98
59829;BME280;45708;51.848;107.620;2023-04-02T06:41:11;96020.16;;;-2.77;26.60
59829;BME280;45708;51.848;107.620;2023-04-02T06:51:42;96000.50;;;-2.91;25.58
59829;BME280;45708;51.848;107.620;2023-04-02T06:56:46;96008.84;;;-2.98;26.08
59829;BME280;45708;51.848;107.620;2023-04-02T07:01:59;95998.00;;;-3.03;26.48
59829;BME280;45708;51.848;107.620;2023-04-02T07:07:01;95994.22;;;-3.11;25.46
59829;BME280;45708;51.848;107.620;2023-04-02T07:12:10;96003.31;;;-3.29;25.65
59829;BME280;45708;51.848;107.620;2023-04-02T07:17:15;95987.47;;;-3.24;26.01
59829;BME280;45708;51.848;107.620;2023-04-02T07:22:17;95989.72;;;-3.55;25.59
59829;BME280;45708;51.848;107.620;2023-04-02T07:27:18;95988.91;;;-3.55;25.97
59829;BME280;45708;51.848;107.620;2023-04-02T07:32:19;95988.09;;;-3.45;26.55
59829;BME280;45708;51.848;107.620;2023-04-02T07:37:20;95991.91;;;-3.38;26.21
59829;BME280;45708;51.848;107.620;2023-04-02T07:42:20;95990.31;;;-3.51;26.77
59829;BME280;45708;51.848;107.620;2023-04-02T07:47:21;96001.19;;;-3.83;26.77
59829;BME280;45708;51.848;107.620;2023-04-02T07:52:22;96001.19;;;-3.83;27.19
59829;BME280;45708;51.848;107.620;2023-04-02T07:57:23;95990.38;;;-3.88;27.07
59829;BME280;45708;51.848;107.620;2023-04-02T08:02:25;95997.41;;;-3.90;26.76
59829;BME280;45708;51.848;107.620;2023-04-02T08:07:26;95995.66;;;-4.02;27.20
59829;BME280;45708;51.848;107.620;2023-04-02T08:12:27;96003.38;;;-4.26;27.59
59829;BME280;45708;51.848;107.620;2023-04-02T08:17:28;95986.00;;;-4.11;27.54
59829;BME280;45708;51.848;107.620;2023-04-02T08:22:30;95998.22;;;-4.26;27.32
59829;BME280;45708;51.848;107.620;2023-04-02T08:27:31;96003.38;;;-4.26;28.42
59829;BME280;45708;51.848;107.620;2023-04-02T08:32:32;96000.44;;;-4.09;27.67
59829;BME280;45708;51.848;107.620;2023-04-02T08:37:33;96028.66;;;-4.18;27.13
59829;BME280;45708;51.848;107.620;2023-04-02T08:42:40;96015.38;;;-4.38;27.65
59829;BME280;45708;51.848;107.620;2023-04-02T08:47:44;96021.34;;;-4.50;27.90
59829;BME280;45708;51.848;107.620;2023-04-02T08:52:45;96030.03;;;-4.51;27.77
59829;BME280;45708;51.848;107.620;2023-04-02T08:57:56;96017.84;;;-4.62;27.93
59829;BME280;45708;51.848;107.620;2023-04-02T09:03:41;96019.09;;;-4.54;27.85
59829;BME280;45708;51.848;107.620;2023-04-02T09:08:46;96021.84;;;-4.45;27.58
59829;BME280;45708;51.848;107.620;2023-04-02T09:13:57;96025.69;;;-4.50;27.25
59829;BME280;45708;51.848;107.620;2023-04-02T09:18:58;96014.34;;;-4.73;27.73
59829;BME280;45708;51.848;107.620;2023-04-02T09:24:00;96018.88;;;-4.90;28.85
59829;BME280;45708;51.848;107.620;2023-04-02T09:29:06;96014.34;;;-4.99;29.24
59829;BME280;45708;51.848;107.620;2023-04-02T09:34:30;96020.94;;;-4.95;29.61
59829;BME280;45708;51.848;107.620;2023-04-02T09:39:31;96013.94;;;-4.93;29.70
59829;BME280;45708;51.848;107.620;2023-04-02T09:44:32;96021.75;;;-4.94;29.60
59829;BME280;45708;51.848;107.620;2023-04-02T09:49:36;96017.75;;;-4.98;29.72
59829;BME280;45708;51.848;107.620;2023-04-02T09:54:37;96025.03;;;-5.05;29.35
59829;BME280;45708;51.848;107.620;2023-04-02T09:59:38;96042.13;;;-5.04;29.69
59829;BME280;45708;51.848;107.620;2023-04-02T10:04:42;96032.19;;;-5.35;30.43
59829;BME280;45708;51.848;107.620;2023-04-02T10:09:44;96033.56;;;-5.57;30.30
59829;BME280;45708;51.848;107.620;2023-04-02T10:14:47;96034.13;;;-5.66;31.68
59829;BME280;45708;51.848;107.620;2023-04-02T10:20:01;96046.09;;;-5.65;31.58
59829;BME280;45708;51.848;107.620;2023-04-02T10:25:15;96049.09;;;-5.85;31.04
59829;BME280;45708;51.848;107.620;2023-04-02T10:30:22;96058.16;;;-5.92;30.82
59829;BME280;45708;51.848;107.620;2023-04-02T10:35:47;96057.03;;;-6.02;31.22
59829;BME280;45708;51.848;107.620;2023-04-02T10:46:02;96064.22;;;-6.22;31.83
59829;BME280;45708;51.848;107.620;2023-04-02T10:51:33;96062.84;;;-6.27;33.10
59829;BME280;45708;51.848;107.620;2023-04-02T10:56:37;96072.50;;;-6.45;32.38
59829;BME280;45708;51.848;107.620;2023-04-02T11:01:40;96076.53;;;-6.41;32.75
59829;BME280;45708;51.848;107.620;2023-04-02T11:06:45;96075.44;;;-6.51;32.61
59829;BME280;45708;51.848;107.620;2023-04-02T11:11:55;96070.00;;;-6.61;33.63
59829;BME280;45708;51.848;107.620;2023-04-02T11:16:58;96065.88;;;-6.63;33.61
59829;BME280;45708;51.848;107.620;2023-04-02T11:22:16;96078.00;;;-6.65;33.27
59829;BME280;45708;51.848;107.620;2023-04-02T11:27:29;96090.28;;;-6.70;33.48
59829;BME280;45708;51.848;107.620;2023-04-02T11:32:34;96094.78;;;-6.74;34.18
59829;BME280;45708;51.848;107.620;2023-04-02T11:42:37;96101.13;;;-6.80;34.62
59829;BME280;45708;51.848;107.620;2023-04-02T11:47:38;96119.34;;;-6.84;34.16
59829;BME280;45708;51.848;107.620;2023-04-02T12:14:56;96133.31;;;-7.04;35.51
59829;BME280;45708;51.848;107.620;2023-04-02T12:25:17;96145.78;;;-7.12;36.67
59829;BME280;45708;51.848;107.620;2023-04-02T12:30:22;96158.69;;;-7.14;37.62
59829;BME280;45708;51.848;107.620;2023-04-02T12:35:28;96151.41;;;-7.21;37.58
59829;BME280;45708;51.848;107.620;2023-04-02T12:40:30;96165.41;;;-7.27;37.84
59829;BME280;45708;51.848;107.620;2023-04-02T12:45:32;96176.09;;;-7.34;38.25
59829;BME280;45708;51.848;107.620;2023-04-02T12:50:33;96163.19;;;-7.49;38.66
59829;BME280;45708;51.848;107.620;2023-04-02T12:55:34;96144.31;;;-7.79;38.88
59829;BME280;45708;51.848;107.620;2023-04-02T13:00:35;96176.44;;;-7.56;38.80
59829;BME280;45708;51.848;107.620;2023-04-02T13:05:59;96175.63;;;-7.57;38.90
59829;BME280;45708;51.848;107.620;2023-04-02T13:11:00;96176.53;;;-7.58;39.36
59829;BME280;45708;51.848;107.620;2023-04-02T13:16:05;96176.25;;;-7.69;39.87
59829;BME280;45708;51.848;107.620;2023-04-02T13:31:17;96183.53;;;-7.77;40.08
59829;BME280;45708;51.848;107.620;2023-04-02T13:36:18;96182.19;;;-7.84;40.84
59829;BME280;45708;51.848;107.620;2023-04-02T13:41:23;96183.84;;;-7.83;41.26
59829;BME280;45708;51.848;107.620;2023-04-02T13:46:26;96181.78;;;-7.92;41.24
59829;BME280;45708;51.848;107.620;2023-04-02T13:51:36;96182.03;;;-7.97;41.41
59829;BME280;45708;51.848;107.620;2023-04-02T13:56:37;96177.88;;;-8.00;40.92
59829;BME280;45708;51.848;107.620;2023-04-02T14:01:40;96180.56;;;-8.03;40.80
59829;BME280;45708;51.848;107.620;2023-04-02T14:34:40;96160.81;;;-8.16;41.26
59829;BME280;45708;51.848;107.620;2023-04-02T14:45:16;96119.94;;;-8.35;42.15
59829;BME280;45708;51.848;107.620;2023-04-02T14:50:32;96134.13;;;-8.30;41.65
59829;BME280;45708;51.848;107.620;2023-04-02T14:55:41;96144.38;;;-8.30;43.27
59829;BME280;45708;51.848;107.620;2023-04-02T15:00:50;96144.22;;;-8.42;43.21
59829;BME280;45708;51.848;107.620;2023-04-02T15:06:01;96146.72;;;-8.41;43.97
59829;BME280;45708;51.848;107.620;2023-04-02T15:11:22;96156.97;;;-8.41;43.14
59829;BME280;45708;51.848;107.620;2023-04-02T15:16:25;96153.88;;;-8.47;43.89
59829;BME280;45708;51.848;107.620;2023-04-02T15:37:34;96162.91;;;-8.40;45.03
59829;BME280;45708;51.848;107.620;2023-04-02T15:42:38;96172.34;;;-8.41;46.64
59829;BME280;45708;51.848;107.620;2023-04-02T15:48:10;96178.81;;;-8.51;47.03
59829;BME280;45708;51.848;107.620;2023-04-02T16:05:02;96182.53;;;-8.56;46.20
59829;BME280;45708;51.848;107.620;2023-04-02T16:15:23;96181.31;;;-8.67;47.30
59829;BME280;45708;51.848;107.620;2023-04-02T16:20:33;96183.13;;;-8.69;47.72
59829;BME280;45708;51.848;107.620;2023-04-02T16:25:43;96187.25;;;-8.66;47.63
59829;BME280;45708;51.848;107.620;2023-04-02T16:31:01;96197.72;;;-8.71;48.20
59829;BME280;45708;51.848;107.620;2023-04-02T16:56:58;96209.53;;;-8.85;48.38
59829;BME280;45708;51.848;107.620;2023-04-02T17:07:39;96205.56;;;-8.91;48.17
59829;BME280;45708;51.848;107.620;2023-04-02T17:12:44;96203.97;;;-8.94;48.66
59829;BME280;45708;51.848;107.620;2023-04-02T17:17:44;96195.00;;;-8.85;48.90
59829;BME280;45708;51.848;107.620;2023-04-02T17:22:46;96202.09;;;-8.90;48.69
59829;BME280;45708;51.848;107.620;2023-04-02T17:27:48;96200.81;;;-8.99;48.19
59829;BME280;45708;51.848;107.620;2023-04-02T17:32:49;96196.38;;;-8.95;48.52
59829;BME280;45708;51.848;107.620;2023-04-02T17:43:48;96217.28;;;-9.04;48.47
59829;BME280;45708;51.848;107.620;2023-04-02T17:49:10;96212.16;;;-9.04;48.22
59829;BME280;45708;51.848;107.620;2023-04-02T17:54:23;96217.41;;;-9.07;48.59
59829;BME280;45708;51.848;107.620;2023-04-02T18:16:12;96222.53;;;-9.07;48.70
59829;BME280;45708;51.848;107.620;2023-04-02T18:32:14;96236.84;;;-9.21;48.67
59829;BME280;45708;51.848;107.620;2023-04-02T18:37:25;96234.28;;;-9.21;49.67
59829;BME280;45708;51.848;107.620;2023-04-02T18:53:12;96223.53;;;-9.29;48.79
59829;BME280;45708;51.848;107.620;2023-04-02T18:58:17;96216.09;;;-9.33;48.74
59829;BME280;45708;51.848;107.620;2023-04-02T19:08:27;96231.16;;;-9.46;49.55
59829;BME280;45708;51.848;107.620;2023-04-02T19:13:30;96234.00;;;-9.52;49.54
59829;BME280;45708;51.848;107.620;2023-04-02T19:24:01;96239.66;;;-9.64;48.74
59829;BME280;45708;51.848;107.620;2023-04-02T19:44:51;96230.66;;;-9.92;49.69
59829;BME280;45708;51.848;107.620;2023-04-02T19:49:53;96234.94;;;-9.92;49.21
59829;BME280;45708;51.848;107.620;2023-04-02T19:54:55;96236.94;;;-9.99;49.40
59829;BME280;45708;51.848;107.620;2023-04-02T19:59:56;96243.59;;;-9.95;50.58
59829;BME280;45708;51.848;107.620;2023-04-02T20:04:56;96244.63;;;-9.99;49.64
59829;BME280;45708;51.848;107.620;2023-04-02T20:09:57;96243.59;;;-9.95;49.37
59829;BME280;45708;51.848;107.620;2023-04-02T20:14:58;96246.28;;;-9.98;49.07
59829;BME280;45708;51.848;107.620;2023-04-02T20:19:59;96253.28;;;-10.03;50.11
59829;BME280;45708;51.848;107.620;2023-04-02T20:24:59;96255.03;;;-9.85;49.56
59829;BME280;45708;51.848;107.620;2023-04-02T20:30:00;96262.50;;;-9.99;50.67
59829;BME280;45708;51.848;107.620;2023-04-02T20:35:02;96267.72;;;-10.02;51.30
59829;BME280;45708;51.848;107.620;2023-04-02T20:40:03;96264.59;;;-10.27;51.48
59829;BME280;45708;51.848;107.620;2023-04-02T20:45:05;96270.72;;;-10.52;52.05
59829;BME280;45708;51.848;107.620;2023-04-02T20:50:06;96274.16;;;-10.53;52.57
59829;BME280;45708;51.848;107.620;2023-04-02T20:55:07;96283.88;;;-10.61;52.34
59829;BME280;45708;51.848;107.620;2023-04-02T21:00:09;96288.25;;;-10.64;51.94
59829;BME280;45708;51.848;107.620;2023-04-02T21:05:10;96288.97;;;-10.61;51.88
59829;BME280;45708;51.848;107.620;2023-04-02T21:10:11;96294.00;;;-10.59;51.90
59829;BME280;45708;51.848;107.620;2023-04-02T21:15:11;96300.88;;;-10.61;52.31
59829;BME280;45708;51.848;107.620;2023-04-02T21:20:12;96303.06;;;-10.52;52.82
59829;BME280;45708;51.848;107.620;2023-04-02T21:25:13;96310.41;;;-10.45;53.00
59829;BME280;45708;51.848;107.620;2023-04-02T21:30:14;96306.63;;;-10.34;52.88
59829;BME280;45708;51.848;107.620;2023-04-02T21:35:15;96318.00;;;-10.43;52.00
59829;BME280;45708;51.848;107.620;2023-04-02T21:40:16;96310.81;;;-10.54;53.01
59829;BME280;45708;51.848;107.620;2023-04-02T21:45:16;96319.34;;;-10.55;53.24
59829;BME280;45708;51.848;107.620;2023-04-02T21:50:20;96330.59;;;-10.59;52.27
59829;BME280;45708;51.848;107.620;2023-04-02T21:55:21;96339.91;;;-10.58;53.26
59829;BME280;45708;51.848;107.620;2023-04-02T22:00:22;96345.03;;;-10.58;52.04
59829;BME280;45708;51.848;107.620;2023-04-02T22:05:22;96335.03;;;-10.64;53.47
59829;BME280;45708;51.848;107.620;2023-04-02T22:10:23;96335.25;;;-10.48;52.32
59829;BME280;45708;51.848;107.620;2023-04-02T22:15:24;96336.97;;;-10.49;53.06
59829;BME280;45708;51.848;107.620;2023-04-02T22:20:25;96331.81;;;-10.47;51.70
59829;BME280;45708;51.848;107.620;2023-04-02T22:25:25;96334.81;;;-10.58;52.14
59829;BME280;45708;51.848;107.620;2023-04-02T22:30:26;96339.78;;;-10.55;52.93
59829;BME280;45708;51.848;107.620;2023-04-02T22:35:28;96349.16;;;-10.55;52.28
59829;BME280;45708;51.848;107.620;2023-04-02T22:40:29;96340.09;;;-10.42;52.74
59829;BME280;45708;51.848;107.620;2023-04-02T22:45:30;96349.50;;;-10.43;51.53
59829;BME280;45708;51.848;107.620;2023-04-02T22:50:31;96367.53;;;-10.25;52.10
59829;BME280;45708;51.848;107.620;2023-04-02T22:55:32;96339.88;;;-10.16;50.64
59829;BME280;45708;51.848;107.620;2023-04-02T23:00:32;96353.69;;;-9.99;50.95
59829;BME280;45708;51.848;107.620;2023-04-02T23:05:33;96344.66;;;-9.88;50.25
59829;BME280;45708;51.848;107.620;2023-04-02T23:10:34;96365.47;;;-9.56;50.44
59829;BME280;45708;51.848;107.620;2023-04-02T23:15:35;96358.84;;;-9.41;50.07
59829;BME280;45708;51.848;107.620;2023-04-02T23:20:36;96379.44;;;-9.05;50.07
59829;BME280;45708;51.848;107.620;2023-04-02T23:25:37;96354.53;;;-9.02;49.03
59829;BME280;45708;51.848;107.620;2023-04-02T23:30:39;96378.88;;;-8.74;48.44
59829;BME280;45708;51.848;107.620;2023-04-02T23:35:40;96372.25;;;-8.78;48.29
59829;BME280;45708;51.848;107.620;2023-04-02T23:40:41;96386.44;;;-8.71;47.58
59829;BME280;45708;51.848;107.620;2023-04-02T23:45:48;96381.59;;;-8.41;47.09
59829;BME280;45708;51.848;107.620;2023-04-02T23:50:49;96410.72;;;-8.08;46.56
59829;BME280;45708;51.848;107.620;2023-04-02T23:55:50;96400.63;;;-8.11;46.76
